Time;durP1;ratioP1;P1;durP2;ratioP2;P2;SDS_P1;SDS_P2;PMS_P1;PMS_P2;Temp;Humidity;BMP_temperature;BMP_pressure;BME280_temperature;BME280_humidity;BME280_pressure;Samples;Min_cycle;Max_cycle;Signal;HPM_P1;HPM_P2
2023/03/24 00:01:20;;;;;;;3.40;1.50;;;;;;;;;;4996104;28;20026;-76
2023/03/24 00:03:47;;;;;;;4.83;1.30;;;;;;;;;;4991702;28;20022;-77
2023/03/24 00:06:14;;;;;;;2.40;1.00;;;;;;;;;;4998757;28;20022;-76
2023/03/24 00:08:42;;;;;;;3.37;1.13;;;;;;;;;;5002002;28;20117;-75
2023/03/24 00:11:10;;;;;;;3.93;1.30;;;;;;;;;;4990060;28;20022;-76
2023/03/24 00:13:39;;;;;;;4.73;2.23;;;;;;;;;;4998492;28;20080;-76
2023/03/24 00:16:09;;;;;;;2.83;1.40;;;;;;;;;;4998646;28;20041;-76
2023/03/24 00:18:36;;;;;;;2.77;1.30;;;;;;;;;;4995825;28;20022;-76
2023/03/24 00:21:02;;;;;;;4.50;1.40;;;;;;;;;;4999507;28;20025;-76
2023/03/24 00:23:32;;;;;;;2.90;1.10;;;;;;;;;;5005543;28;20022;-75
2023/03/24 00:26:01;;;;;;;3.87;1.20;;;;;;;;;;5001477;28;20447;-76
2023/03/24 00:28:27;;;;;;;5.27;1.20;;;;;;;;;;5013367;28;20073;-76
2023/03/24 00:30:56;;;;;;;3.10;1.20;;;;;;;;;;4997683;28;20048;-76
2023/03/24 00:33:23;;;;;;;3.47;1.27;;;;;;;;;;5001581;28;20350;-76
2023/03/24 00:35:49;;;;;;;5.80;1.23;;;;;;;;;;4993784;28;20041;-76
2023/03/24 00:38:18;;;;;;;1.83;0.90;;;;;;;;;;5002718;28;20058;-76
2023/03/24 00:40:47;;;;;;;2.47;1.40;;;;;;;;;;4987916;28;20022;-76
2023/03/24 00:43:13;;;;;;;3.80;1.40;;;;;;;;;;4993898;28;20112;-76
2023/03/24 00:45:45;;;;;;;4.33;1.10;;;;;;;;;;4997902;28;20113;-76
2023/03/24 00:48:18;;;;;;;2.80;1.43;;;;;;;;;;4984479;28;20049;-76
2023/03/24 00:50:45;;;;;;;2.07;1.00;;;;;;;;;;4993952;28;20040;-75
2023/03/24 00:53:14;;;;;;;1.97;1.00;;;;;;;;;;5009040;28;20045;-76
2023/03/24 00:55:41;;;;;;;2.80;1.60;;;;;;;;;;5009250;28;20386;-75
2023/03/24 00:58:09;;;;;;;1.77;1.23;;;;;;;;;;4988983;28;20065;-76
2023/03/24 01:00:40;;;;;;;2.20;1.40;;;;;;;;;;4988184;28;20026;-76
2023/03/24 01:03:08;;;;;;;1.40;1.20;;;;;;;;;;5009785;28;20057;-76
2023/03/24 01:05:35;;;;;;;4.57;1.60;;;;;;;;;;4995861;28;20034;-76
2023/03/24 01:08:05;;;;;;;4.57;2.17;;;;;;;;;;5010767;28;21587;-76
2023/03/24 01:10:35;;;;;;;3.73;1.90;;;;;;;;;;5012011;28;20030;-76
2023/03/24 01:13:02;;;;;;;4.20;1.80;;;;;;;;;;5012140;28;20459;-75
2023/03/24 01:15:32;;;;;;;3.03;1.70;;;;;;;;;;5000375;28;20034;-76
2023/03/24 01:18:00;;;;;;;5.03;1.90;;;;;;;;;;5009978;28;20030;-75
2023/03/24 01:20:31;;;;;;;2.60;1.50;;;;;;;;;;4996454;28;20454;-76
2023/03/24 01:22:57;;;;;;;4.20;1.83;;;;;;;;;;5012164;28;20435;-75
2023/03/24 01:25:26;;;;;;;4.70;1.70;;;;;;;;;;4996475;28;20046;-75
2023/03/24 01:27:53;;;;;;;3.83;2.03;;;;;;;;;;4995888;28;20116;-75
2023/03/24 01:30:22;;;;;;;2.10;1.30;;;;;;;;;;5009691;28;20033;-76
2023/03/24 01:32:47;;;;;;;3.57;1.93;;;;;;;;;;5010551;28;20128;-76
2023/03/24 01:35:14;;;;;;;3.90;1.87;;;;;;;;;;5013107;28;20642;-76
2023/03/24 01:37:40;;;;;;;3.30;1.80;;;;;;;;;;4995206;28;20522;-74
2023/03/24 01:40:09;;;;;;;5.37;1.80;;;;;;;;;;4996687;28;20522;-76
2023/03/24 01:42:36;;;;;;;3.07;1.73;;;;;;;;;;5010992;28;20066;-76
2023/03/24 01:45:22;;;;;;;2.47;1.63;;;;;;;;;;4995317;28;20092;-76
2023/03/24 01:47:49;;;;;;;6.37;2.07;;;;;;;;;;4992737;28;20037;-76
2023/03/24 01:50:16;;;;;;;4.00;2.00;;;;;;;;;;5011228;28;20037;-76
2023/03/24 01:52:42;;;;;;;4.50;1.50;;;;;;;;;;4994141;28;20112;-76
2023/03/24 01:55:11;;;;;;;2.47;1.50;;;;;;;;;;4997892;28;20463;-76
2023/03/24 01:57:42;;;;;;;4.07;1.80;;;;;;;;;;4998941;28;20099;-76
2023/03/24 02:00:11;;;;;;;2.00;1.50;;;;;;;;;;4991430;28;20137;-76
2023/03/24 02:02:38;;;;;;;3.33;1.77;;;;;;;;;;4995279;28;20034;-75
2023/03/24 02:05:08;;;;;;;2.97;1.70;;;;;;;;;;5012218;28;20033;-76
2023/03/24 02:07:41;;;;;;;3.87;1.50;;;;;;;;;;4995218;28;20041;-76
2023/03/24 02:10:12;;;;;;;3.92;1.58;;;;;;;;;;4995181;28;20494;-76
2023/03/24 02:12:38;;;;;;;3.77;1.40;;;;;;;;;;4994919;28;20037;-75
2023/03/24 02:15:04;;;;;;;3.60;1.80;;;;;;;;;;5011775;28;20884;-76
2023/03/24 02:17:38;;;;;;;2.47;1.70;;;;;;;;;;5013589;28;20052;-76
2023/03/24 02:20:13;;;;;;;2.13;1.43;;;;;;;;;;5009019;28;20026;-75
2023/03/24 02:22:40;;;;;;;5.33;2.10;;;;;;;;;;4997233;28;20030;-76
2023/03/24 02:25:32;;;;;;;3.63;2.10;;;;;;;;;;5013028;28;20092;-76
2023/03/24 02:28:12;;;;;;;3.30;2.13;;;;;;;;;;4968396;28;21774;-76
2023/03/24 02:30:51;;;;;;;2.30;1.83;;;;;;;;;;5008810;28;20029;-76
2023/03/24 02:33:20;;;;;;;3.83;2.00;;;;;;;;;;4994764;28;20042;-75
2023/03/24 02:36:01;;;;;;;4.77;2.27;;;;;;;;;;4993635;28;20026;-76
2023/03/24 02:38:27;;;;;;;3.33;2.10;;;;;;;;;;5011050;28;20025;-76
2023/03/24 02:41:01;;;;;;;4.57;1.93;;;;;;;;;;4992835;28;20041;-76
2023/03/24 02:43:40;;;;;;;3.90;2.10;;;;;;;;;;4993729;28;20831;-76
2023/03/24 02:46:06;;;;;;;6.03;1.70;;;;;;;;;;5010100;28;20116;-74
2023/03/24 02:48:35;;;;;;;4.27;2.20;;;;;;;;;;5011837;28;20049;-75
2023/03/24 02:51:01;;;;;;;4.30;2.33;;;;;;;;;;5013047;28;20032;-76
2023/03/24 02:53:32;;;;;;;4.07;2.33;;;;;;;;;;5015727;28;20386;-76
2023/03/24 02:56:09;;;;;;;3.83;2.07;;;;;;;;;;5005603;28;20034;-76
2023/03/24 02:58:40;;;;;;;4.83;2.30;;;;;;;;;;4998900;28;20022;-75
2023/03/24 03:01:10;;;;;;;5.40;2.30;;;;;;;;;;5007945;28;20116;-75
2023/03/24 03:03:40;;;;;;;3.80;2.27;;;;;;;;;;4995297;28;20086;-76
2023/03/24 03:06:08;;;;;;;4.87;2.70;;;;;;;;;;4998938;28;20329;-76
2023/03/24 03:08:36;;;;;;;7.60;2.40;;;;;;;;;;4998949;28;20454;-75
2023/03/24 03:11:04;;;;;;;4.03;2.40;;;;;;;;;;5018097;28;20061;-76
2023/03/24 03:13:36;;;;;;;4.17;2.57;;;;;;;;;;5020454;28;20097;-76
2023/03/24 03:16:24;;;;;;;3.67;2.20;;;;;;;;;;5009837;28;20034;-76
2023/03/24 03:18:53;;;;;;;3.67;2.20;;;;;;;;;;5012757;28;20022;-76
2023/03/24 03:21:22;;;;;;;4.20;2.23;;;;;;;;;;5013708;28;20036;-75
2023/03/24 03:23:56;;;;;;;3.70;2.30;;;;;;;;;;5018236;28;20032;-76
2023/03/24 03:26:25;;;;;;;3.43;2.50;;;;;;;;;;5036168;28;20102;-76
2023/03/24 03:28:56;;;;;;;5.33;2.10;;;;;;;;;;5005278;28;20036;-76
2023/03/24 03:31:28;;;;;;;3.73;2.20;;;;;;;;;;5006602;28;20068;-76
2023/03/24 03:34:04;;;;;;;3.28;2.40;;;;;;;;;;5008810;28;20018;-76
2023/03/24 03:36:36;;;;;;;3.57;2.30;;;;;;;;;;5008844;28;20249;-77
2023/03/24 03:39:13;;;;;;;4.82;2.55;;;;;;;;;;4996186;28;20395;-76
2023/03/24 03:41:39;;;;;;;3.57;2.53;;;;;;;;;;4990554;28;20105;-75
2023/03/24 03:44:06;;;;;;;5.37;2.47;;;;;;;;;;4998144;28;20365;-76
2023/03/24 03:46:32;;;;;;;4.60;2.57;;;;;;;;;;5012049;28;20049;-76
2023/03/24 03:48:58;;;;;;;3.80;2.47;;;;;;;;;;4997253;28;20112;-76
2023/03/24 03:51:24;;;;;;;4.10;2.40;;;;;;;;;;4998279;28;20029;-76
2023/03/24 03:53:57;;;;;;;5.30;2.27;;;;;;;;;;4989643;28;20038;-76
2023/03/24 03:56:24;;;;;;;3.95;2.30;;;;;;;;;;5014560;28;20028;-75
2023/03/24 03:58:54;;;;;;;3.97;2.50;;;;;;;;;;4996426;28;20046;-76
2023/03/24 04:01:23;;;;;;;3.00;2.10;;;;;;;;;;4998067;28;20406;-75
2023/03/24 04:03:49;;;;;;;6.67;2.73;;;;;;;;;;5009129;28;20022;-76
2023/03/24 04:06:28;;;;;;;3.17;2.50;;;;;;;;;;5013903;28;20084;-76
2023/03/24 04:09:09;;;;;;;6.03;2.50;;;;;;;;;;4998525;28;20053;-76
2023/03/24 04:11:38;;;;;;;4.13;2.10;;;;;;;;;;5008769;28;20023;-75
2023/03/24 04:14:14;;;;;;;3.70;2.10;;;;;;;;;;4998397;28;20029;-76
2023/03/24 04:17:03;;;;;;;2.57;1.90;;;;;;;;;;4995349;28;20034;-76
2023/03/24 04:19:32;;;;;;;3.87;1.90;;;;;;;;;;4990225;28;20036;-76
2023/03/24 04:22:05;;;;;;;3.57;2.10;;;;;;;;;;5005141;28;20037;-76
2023/03/24 04:24:49;;;;;;;2.40;1.80;;;;;;;;;;5008883;28;20497;-76
2023/03/24 04:27:25;;;;;;;4.67;2.30;;;;;;;;;;5007782;28;20025;-76
2023/03/24 04:30:05;;;;;;;2.37;1.73;;;;;;;;;;4986832;28;20039;-75
2023/03/24 04:32:31;;;;;;;4.17;1.70;;;;;;;;;;4999305;28;20443;-76
2023/03/24 04:35:00;;;;;;;2.13;1.37;;;;;;;;;;5007386;28;20121;-75
2023/03/24 04:37:36;;;;;;;2.23;1.50;;;;;;;;;;4998332;28;20357;-76
2023/03/24 04:40:04;;;;;;;2.67;1.20;;;;;;;;;;5016569;28;20144;-75
2023/03/24 04:42:36;;;;;;;1.87;1.10;;;;;;;;;;5011909;28;20038;-75
2023/03/24 04:45:03;;;;;;;3.57;1.80;;;;;;;;;;5002552;28;20025;-77
2023/03/24 04:47:30;;;;;;;4.83;1.97;;;;;;;;;;5003830;28;20030;-77
2023/03/24 04:50:05;;;;;;;3.30;0.87;;;;;;;;;;5019334;28;20026;-76
2023/03/24 04:52:31;;;;;;;1.77;1.00;;;;;;;;;;5001914;28;20041;-77
2023/03/24 04:54:57;;;;;;;4.40;0.83;;;;;;;;;;5018989;28;20029;-78
2023/03/24 04:57:23;;;;;;;1.30;0.83;;;;;;;;;;5001888;28;20121;-77
2023/03/24 04:59:49;;;;;;;2.60;1.10;;;;;;;;;;5004850;28;20173;-76
2023/03/24 05:02:15;;;;;;;7.20;1.20;;;;;;;;;;5019678;28;20026;-76
2023/03/24 05:04:41;;;;;;;4.50;1.10;;;;;;;;;;5008477;28;20037;-77
2023/03/24 05:07:07;;;;;;;3.13;1.20;;;;;;;;;;5005297;28;20034;-76
2023/03/24 05:09:36;;;;;;;3.73;1.53;;;;;;;;;;5002942;28;20040;-76
2023/03/24 05:12:02;;;;;;;2.30;1.33;;;;;;;;;;5012095;28;20038;-75
2023/03/24 05:14:28;;;;;;;3.73;1.40;;;;;;;;;;4993765;28;20075;-76
2023/03/24 05:16:53;;;;;;;3.50;1.33;;;12.00;99.90;;;;;;4999504;28;20026;-76
2023/03/24 05:19:19;;;;;;;4.03;1.57;;;;;;;;;;5010342;28;20034;-76
2023/03/24 05:21:46;;;;;;;3.33;1.60;;;;;;;;;;4991748;28;20054;-76
2023/03/24 05:24:12;;;;;;;3.00;1.70;;;;;;;;;;5007695;28;20030;-76
2023/03/24 05:26:38;;;;;;;6.83;1.20;;;;;;;;;;5007549;28;20040;-75
2023/03/24 05:29:04;;;;;;;4.63;1.40;;;;;;;;;;5004179;28;20108;-75
2023/03/24 05:31:30;;;;;;;2.93;1.60;;;;;;;;;;5016038;28;20320;-75
2023/03/24 05:33:56;;;;;;;4.20;1.90;;;;;;;;;;4998882;28;20042;-76
2023/03/24 05:36:22;;;;;;;5.90;1.77;;;;;;;;;;5018526;28;20022;-76
2023/03/24 05:38:48;;;;;;;4.63;1.50;;;;;;;;;;4998624;28;20018;-76
2023/03/24 05:41:16;;;;;;;2.93;1.50;;;;;;;;;;4995123;28;20018;-76
2023/03/24 05:43:42;;;;;;;4.97;1.60;;;;;;;;;;5002159;28;20116;-76
2023/03/24 05:46:08;;;;;;;4.77;2.03;;;;;;;;;;4996442;28;20177;-75
2023/03/24 05:48:34;;;;;;;2.93;1.10;;;;;;;;;;5001197;28;20446;-76
2023/03/24 05:51:00;;;;;;;8.47;1.43;;;;;;;;;;5001755;28;20057;-76
2023/03/24 05:53:26;;;;;;;5.87;1.30;;;;;;;;;;5001144;28;20025;-76
2023/03/24 05:55:52;;;;;;;8.47;1.33;;;;;;;;;;4999443;28;20026;-76
2023/03/24 05:58:20;;;;;;;5.97;1.30;;;;;;;;;;5014896;28;20096;-76
2023/03/24 06:00:46;;;;;;;6.00;1.63;;;;;;;;;;5017390;28;20026;-75
2023/03/24 06:03:12;;;;;;;5.60;1.10;;;;;;;;;;4999038;28;20421;-76
2023/03/24 06:05:38;;;;;;;7.77;1.57;;;11.50;99.90;;;;;;5005043;28;20037;-76
2023/03/24 06:08:04;;;;;;;5.33;1.23;;;11.30;99.90;;;;;;5001356;28;20109;-76
2023/03/24 06:10:30;;;;;;;4.57;1.20;;;;;;;;;;5011602;28;20430;-76
2023/03/24 06:12:56;;;;;;;3.33;1.03;;;;;;;;;;5012205;28;20072;-76
2023/03/24 06:15:26;;;;;;;8.80;1.97;;;11.20;99.90;;;;;;5000527;28;20057;-76
2023/03/24 06:17:53;;;;;;;5.13;1.60;;;;;;;;;;5005824;28;20501;-76
2023/03/24 06:20:19;;;;;;;3.83;1.43;;;;;;;;;;4997383;28;20069;-75
2023/03/24 06:22:49;;;;;;;5.93;1.37;;;;;;;;;;5012108;28;20018;-75
2023/03/24 06:25:16;;;;;;;7.67;1.80;;;;;;;;;;5003165;28;20117;-75
2023/03/24 06:27:46;;;;;;;9.77;1.87;;;;;;;;;;5014089;28;20037;-75
2023/03/24 06:30:14;;;;;;;4.33;1.40;;;;;;;;;;5017833;28;20113;-76
2023/03/24 06:32:45;;;;;;;8.83;1.97;;;;;;;;;;4999396;28;20061;-76
2023/03/24 06:35:13;;;;;;;8.43;2.37;;;;;;;;;;4981178;28;20707;-76
2023/03/24 06:37:39;;;;;;;5.60;2.00;;;;;;;;;;5001833;28;20022;-75
2023/03/24 06:40:06;;;;;;;6.33;1.83;;;;;;;;;;4988387;28;20465;-75
2023/03/24 06:42:35;;;;;;;7.50;2.30;;;;;;;;;;5003434;28;20036;-75
2023/03/24 06:45:03;;;;;;;5.13;1.63;;;;;;;;;;5006694;28;20113;-76
2023/03/24 06:47:29;;;;;;;9.60;2.83;;;;;;;;;;4999156;28;20034;-76
2023/03/24 06:49:57;;;;;;;14.50;3.13;;;;;;;;;;4999832;28;20433;-76
2023/03/24 06:52:24;;;;;;;11.63;3.10;;;;;;;;;;5053582;23;20046;-76
2023/03/24 06:54:50;;;;;;;10.53;2.50;;;;;;;;;;5021409;28;20125;-75
2023/03/24 06:57:16;;;;;;;7.90;2.40;;;;;;;;;;5041660;28;20096;-76
2023/03/24 06:59:42;;;;;;;8.23;2.70;;;;;;;;;;5031749;28;20076;-76
2023/03/24 07:02:11;;;;;;;14.83;3.30;;;;;;;;;;5025821;28;20029;-76
2023/03/24 07:04:37;;;;;;;12.73;2.97;;;;;;;;;;5017796;28;20033;-76
2023/03/24 07:07:03;;;;;;;11.70;3.73;;;;;;;;;;5027837;28;20140;-76
2023/03/24 07:09:29;;;;;;;12.93;3.50;;;;;;;;;;5030275;28;20475;-75
2023/03/24 07:11:55;;;;;;;8.40;2.77;;;;;;;;;;5025523;28;20075;-76
2023/03/24 07:14:24;;;;;;;14.80;2.87;;;;;;;;;;5035819;28;20073;-76
2023/03/24 07:16:51;;;;;;;8.37;2.60;;;;;;;;;;5034819;28;20025;-76
2023/03/24 07:19:17;;;;;;;10.90;3.43;;;;;;;;;;5034573;28;20612;-76
2023/03/24 07:21:48;;;;;;;10.47;2.90;;;;;;;;;;5011056;28;20045;-76
2023/03/24 07:24:18;;;;;;;7.83;2.60;;;;;;;;;;5031566;28;20052;-77
2023/03/24 07:26:47;;;;;;;11.63;2.77;;;;;;;;;;5034959;28;20464;-76
2023/03/24 07:29:13;;;;;;;8.03;2.23;;;;;;;;;;5017938;28;20612;-76
2023/03/24 07:31:39;;;;;;;6.80;3.03;;;;;;;;;;5032475;28;20112;-76
2023/03/24 07:34:05;;;;;;;12.37;2.60;;;;;;;;;;5022231;28;20033;-76
2023/03/24 07:36:31;;;;;;;10.47;2.03;;;;;;;;;;5023012;28;20098;-77
2023/03/24 07:38:57;;;;;;;9.53;1.87;;;;;;;;;;5034260;28;20035;-76
2023/03/24 07:41:25;;;;;;;9.40;2.20;;;;;;;;;;5020282;28;20025;-76
2023/03/24 07:43:53;;;;;;;6.37;1.60;;;;;;;;;;5026712;28;20025;-76
2023/03/24 07:46:19;;;;;;;10.30;2.87;;;;;;;;;;5031700;28;20025;-75
2023/03/24 07:48:46;;;;;;;8.30;2.60;;;;;;;;;;5035668;28;20031;-76
2023/03/24 07:51:12;;;;;;;6.53;1.97;;;;;;;;;;5017239;28;20040;-75
2023/03/24 07:53:38;;;;;;;8.43;2.07;;;;;;;;;;5034568;28;20025;-75
2023/03/24 07:56:06;;;;;;;6.63;1.67;;;;;;;;;;5033519;28;20032;-76
2023/03/24 07:58:32;;;;;;;8.47;2.23;;;;;;;;;;5034285;28;20109;-76
2023/03/24 08:00:58;;;;;;;11.70;2.87;;;;;;;;;;5025317;28;20454;-76
2023/03/24 08:03:26;;;;;;;9.60;2.77;;;;;;;;;;5023783;28;20052;-76
2023/03/24 08:05:54;;;;;;;9.83;2.20;;;;;;;;;;5034317;28;20105;-76
2023/03/24 08:08:20;;;;;;;13.57;2.57;;;;;;;;;;5034086;28;20412;-76
2023/03/24 08:10:49;;;;;;;10.40;2.63;;;;;;;;;;5024501;28;20113;-76
2023/03/24 08:13:17;;;;;;;12.17;2.40;;;;;;;;;;5034556;28;20424;-76
2023/03/24 08:15:43;;;;;;;8.77;2.57;;;;;;;;;;5018228;28;20483;-76
2023/03/24 08:18:09;;;;;;;12.37;3.30;;;;;;;;;;5024993;28;20125;-76
2023/03/24 08:20:35;;;;;;;11.43;2.47;;;;;;;;;;5016861;28;20053;-76
2023/03/24 08:23:05;;;;;;;13.10;3.20;;;;;;;;;;5019055;28;20033;-76
2023/03/24 08:25:31;;;;;;;13.27;3.47;;;;;;;;;;5018511;28;20621;-76
2023/03/24 08:27:57;;;;;;;13.27;3.83;;;;;;;;;;5019259;28;20029;-76
2023/03/24 08:30:24;;;;;;;10.27;3.20;;;;;;;;;;5026039;28;20029;-76
2023/03/24 08:32:52;;;;;;;14.03;4.43;;;;;;;;;;5035419;28;20430;-76
2023/03/24 08:35:22;;;;;;;7.53;3.50;;;11.40;99.90;;;;;;5035924;28;20029;-76
2023/03/24 08:37:50;;;;;;;9.40;3.63;;;;;;;;;;5033933;28;20026;-76
2023/03/24 08:40:19;;;;;;;13.03;3.40;;;;;;;;;;5016806;28;20040;-76
2023/03/24 08:42:48;;;;;;;9.50;3.17;;;;;;;;;;5019945;28;20030;-76
2023/03/24 08:45:14;;;;;;;13.30;4.00;;;;;;;;;;5034254;28;20040;-76
2023/03/24 08:47:40;;;;;;;16.17;3.57;;;;;;;;;;5033897;28;20107;-76
2023/03/24 08:50:07;;;;;;;10.40;3.30;;;;;;;;;;5034122;28;20033;-76
2023/03/24 08:52:35;;;;;;;9.40;3.47;;;;;;;;;;5033452;28;20120;-76
2023/03/24 08:55:01;;;;;;;13.77;3.13;;;;;;;;;;5023661;28;20026;-76
2023/03/24 08:57:27;;;;;;;14.83;3.63;;;12.30;99.90;;;;;;5025611;28;20045;-76
2023/03/24 08:59:53;;;;;;;14.27;3.40;;;;;;;;;;5024277;28;20064;-76
2023/03/24 09:02:20;;;;;;;15.93;2.70;;;;;;;;;;5017541;28;20025;-76
2023/03/24 09:04:46;;;;;;;12.67;2.80;;;;;;;;;;5033961;28;20072;-76
2023/03/24 09:07:12;;;;;;;11.50;3.47;;;12.60;99.90;;;;;;5017213;28;20033;-76
2023/03/24 09:09:38;;;;;;;16.47;3.60;;;;;;;;;;5027878;28;20033;-76
2023/03/24 09:12:08;;;;;;;13.13;2.77;;;12.80;99.90;;;;;;5023331;28;20041;-76
2023/03/24 09:14:34;;;;;;;11.20;2.90;;;12.90;99.90;;;;;;5021796;28;20037;-76
2023/03/24 09:17:00;;;;;;;10.87;2.47;;;;;;;;;;5025288;28;20628;-76
2023/03/24 09:19:26;;;;;;;9.63;2.50;;;;;;;;;;5017720;28;20357;-76
2023/03/24 09:21:52;;;;;;;10.77;2.43;;;;;;;;;;5018624;28;20017;-76
2023/03/24 09:24:18;;;;;;;12.57;2.83;;;;;;;;;;5033689;28;20029;-76
2023/03/24 09:26:44;;;;;;;10.40;2.73;;;;;;;;;;5005948;28;20025;-76
2023/03/24 09:29:10;;;;;;;9.23;2.40;;;;;;;;;;5037113;28;20438;-76
2023/03/24 09:31:39;;;;;;;14.17;2.17;;;;;;;;;;5029412;28;20417;-76
2023/03/24 09:34:05;;;;;;;10.93;2.60;;;;;;;;;;5018672;28;20026;-76
2023/03/24 09:36:31;;;;;;;9.20;2.00;;;;;;;;;;5036754;28;20029;-76
2023/03/24 09:38:57;;;;;;;12.57;2.47;;;;;;;;;;5019971;28;20129;-76
2023/03/24 09:41:27;;;;;;;8.90;2.50;;;;;;;;;;5026380;28;20093;-76
2023/03/24 09:43:56;;;;;;;8.13;2.17;;;;;;;;;;5036320;28;20056;-76
2023/03/24 09:46:29;;;;;;;14.77;2.63;;;;;;;;;;5028390;28;20087;-76
2023/03/24 09:48:58;;;;;;;11.00;2.17;;;;;;;;;;5039645;28;20033;-76
2023/03/24 09:51:26;;;;;;;14.07;2.53;;;;;;;;;;5020128;28;20096;-76
2023/03/24 09:53:55;;;;;;;14.07;2.27;;;;;;;;;;5036819;28;20104;-75
2023/03/24 09:56:22;;;;;;;10.03;2.53;;;;;;;;;;5024660;28;20017;-76
2023/03/24 09:59:14;;;;;;;8.80;2.67;;;;;;;;;;5027600;28;20113;-76
2023/03/24 10:01:40;;;;;;;12.77;2.15;;;;;;;;;;5024799;28;20029;-76
2023/03/24 10:04:12;;;;;;;13.40;2.37;;;;;;;;;;5020437;28;20036;-76
2023/03/24 10:06:40;;;;;;;9.25;2.45;;;;;;;;;;5035315;28;20052;-75
2023/03/24 10:09:06;;;;;;;13.17;3.00;;;;;;;;;;5035486;28;20476;-76
2023/03/24 10:11:40;;;;;;;11.05;3.00;;;;;;;;;;5036135;28;20018;-76
2023/03/24 10:14:10;;;;;;;13.17;2.23;;;;;;;;;;5035737;28;20033;-76
2023/03/24 10:16:42;;;;;;;9.57;2.60;;;;;;;;;;5035860;28;20021;-76
2023/03/24 10:19:23;;;;;;;9.35;2.20;;;;;;;;;;5031878;28;20025;-76
2023/03/24 10:21:57;;;;;;;8.20;2.77;;;;;;;;;;5025041;28;20035;-77
2023/03/24 10:24:29;;;;;;;9.97;2.40;;;;;;;;;;5019535;28;20103;-76
2023/03/24 10:26:55;;;;;;;14.15;2.25;;;;;;;;;;5039164;28;20124;-76
2023/03/24 10:29:27;;;;;;;7.50;1.87;;;;;;;;;;5035710;28;20044;-76
2023/03/24 10:32:00;;;;;;;6.63;1.10;;;;;;;;;;5025250;28;20159;-77
2023/03/24 10:34:28;;;;;;;9.85;1.90;;;;;;;;;;5035478;28;20029;-76
2023/03/24 10:36:56;;;;;;;11.23;1.90;;;;;;;;;;5045659;28;20052;-76
2023/03/24 10:39:22;;;;;;;9.87;2.10;;;;;;;;;;5035858;28;20078;-76
2023/03/24 10:41:49;;;;;;;7.87;1.50;;;14.60;99.90;;;;;;5028303;28;20449;-76
2023/03/24 10:44:16;;;;;;;9.77;1.90;;;;;;;;;;5018573;28;20553;-76
2023/03/24 10:46:45;;;;;;;5.75;1.85;;;;;;;;;;5026245;28;20029;-76
2023/03/24 10:49:13;;;;;;;10.40;2.47;;;;;;;;;;5032326;28;20025;-76
2023/03/24 10:51:43;;;;;;;10.50;2.40;;;;;;;;;;5035858;28;20374;-76
2023/03/24 10:54:13;;;;;;;14.50;1.90;;;;;;;;;;5003319;28;20461;-77
2023/03/24 10:56:44;;;;;;;10.80;2.40;;;;;;;;;;5035063;28;20037;-76
2023/03/24 10:59:17;;;;;;;11.85;2.13;;;;;;;;;;5022706;28;20021;-76
2023/03/24 11:01:43;;;;;;;6.80;1.70;;;;;;;;;;5040636;28;20021;-76
2023/03/24 11:04:12;;;;;;;9.45;2.10;;;;;;;;;;5027008;28;20083;-76
2023/03/24 11:06:41;;;;;;;8.73;1.42;;;;;;;;;;5035401;28;20478;-77
2023/03/24 11:09:17;;;;;;;6.70;1.80;;;;;;;;;;5043016;28;20616;-77
2023/03/24 11:11:43;;;;;;;10.20;2.03;;;;;;;;;;5042070;28;20053;-77
2023/03/24 11:14:24;;;;;;;10.80;2.00;;;;;;;;;;5032420;28;20033;-77
2023/03/24 11:16:50;;;;;;;6.90;1.70;;;;;;;;;;5033728;28;20091;-76
2023/03/24 11:19:20;;;;;;;9.73;1.88;;;;;;;;;;5034090;28;20021;-76
2023/03/24 11:21:47;;;;;;;7.40;1.73;;;;;;;;;;5035031;28;20052;-77
2023/03/24 11:24:15;;;;;;;10.80;2.05;;;;;;;;;;5028929;28;20033;-76
2023/03/24 11:26:45;;;;;;;9.52;1.60;;;;;;;;;;5025976;28;20472;-76
2023/03/24 11:29:17;;;;;;;8.63;1.95;;;;;;;;;;5018781;28;20030;-76
2023/03/24 11:31:50;;;;;;;18.33;2.55;;;;;;;;;;5033341;28;20039;-76
2023/03/24 11:34:18;;;;;;;;;;;;;;;;;;5025959;28;20033;-76
2023/03/24 11:36:59;;;;;;;8.40;2.30;;;;;;;;;;5033861;28;19913;-76
2023/03/24 11:39:25;;;;;;;7.93;2.20;;;;;;;;;;5017876;28;20049;-76
2023/03/24 11:42:04;;;;;;;9.27;2.17;;;;;;;;;;5021108;28;20130;-77
2023/03/24 11:44:42;;;;;;;7.63;2.00;;;;;;;;;;5022362;28;20029;-76
2023/03/24 11:47:11;;;;;;;8.93;1.70;;;;;;;;;;5031635;28;20029;-76
2023/03/24 11:49:50;;;;;;;9.60;2.00;;;;;;;;;;5019992;28;20034;-76
2023/03/24 11:52:24;;;;;;;6.67;1.53;;;;;;;;;;5017287;28;20048;-77
2023/03/24 11:54:52;;;;;;;6.82;2.17;;;;;;;;;;5034911;28;20029;-76
2023/03/24 11:57:41;;;;;;;9.70;1.83;;;;;;;;;;5023471;28;20033;-76
2023/03/24 12:00:14;;;;;;;9.02;1.80;;;;;;;;;;5016675;28;20037;-77
2023/03/24 12:02:46;;;;;;;8.85;2.15;;;;;;;;;;5043149;28;20057;-76
2023/03/24 12:05:18;;;;;;;9.43;2.15;;;;;;;;;;5033770;28;20416;-76
2023/03/24 12:08:04;;;;;;;9.98;1.58;;;;;;;;;;5021817;28;20021;-76
2023/03/24 12:10:42;;;;;;;8.80;2.10;;;;;;;;;;5033891;28;20026;-76
2023/03/24 12:13:37;;;;;;;7.40;2.00;;;;;;;;;;5039292;28;20457;-76
2023/03/24 12:16:03;;;;;;;7.75;1.48;;;;;;;;;;4995839;28;20030;-75
2023/03/24 12:18:39;;;;;;;5.28;1.00;;;;;;;;;;5031619;28;20045;-76
2023/03/24 12:21:08;;;;;;;13.27;1.67;;;;;;;;;;5028373;28;20033;-76
2023/03/24 12:23:53;;;;;;;10.43;1.77;;;;;;;;;;5027060;28;20450;-76
2023/03/24 12:26:29;;;;;;;6.57;1.70;;;;;;;;;;5034265;28;20037;-76
2023/03/24 12:28:58;;;;;;;6.38;1.50;;;;;;;;;;5034255;28;20453;-76
2023/03/24 12:31:40;;;;;;;8.43;1.70;;;;;;;;;;5034441;28;20524;-77
2023/03/24 12:34:25;;;;;;;8.80;1.67;;;;;;;;;;5031294;28;20447;-76
2023/03/24 12:37:04;;;;;;;6.78;1.48;;;;;;;;;;5026556;28;20393;-75
2023/03/24 12:39:36;;;;;;;7.20;1.90;;;;;;;;;;5016598;28;20017;-76
2023/03/24 12:42:09;;;;;;;13.02;2.10;;;;;;;;;;5032480;28;20025;-76
2023/03/24 12:44:53;;;;;;;5.50;1.65;;;;;;;;;;5033148;28;20037;-75
2023/03/24 12:47:40;;;;;;;7.28;1.60;;;;;;;;;;5013469;28;20025;-75
2023/03/24 12:50:19;;;;;;;9.20;1.40;;;;;;;;;;5023447;28;20076;-76
2023/03/24 12:52:52;;;;;;;8.05;1.70;;;;;;;;;;5005938;28;20513;-76
2023/03/24 12:55:18;;;;;;;7.80;1.75;;;;;;;;;;5008858;28;20026;-76
2023/03/24 12:57:54;;;;;;;10.18;1.73;;;;;;;;;;5007952;28;20539;-76
2023/03/24 13:00:37;;;;;;;10.25;1.88;;;;;;;;;;5018957;28;20039;-76
2023/03/24 13:03:11;;;;;;;9.55;1.63;;;;;;;;;;5010207;28;20021;-75
2023/03/24 13:05:58;;;;;;;8.30;1.80;;;;;;;;;;5010751;28;20033;-76
2023/03/24 13:08:31;;;;;;;13.95;1.88;;;;;;;;;;5026040;28;20040;-76
2023/03/24 13:11:05;;;;;;;5.32;1.15;;;;;;;;;;5012012;28;20071;-76
2023/03/24 13:13:31;;;;;;;6.70;1.33;;;;;;;;;;5015893;28;20034;-76
2023/03/24 13:15:59;;;;;;;3.97;0.90;;;;;;;;;;5012917;28;20036;-75
2023/03/24 13:18:33;;;;;;;9.30;1.25;;;;;;;;;;5014265;28;20029;-75
2023/03/24 13:21:11;;;;;;;4.25;1.17;;;;;;;;;;5013064;28;20151;-75
2023/03/24 13:23:44;;;;;;;4.68;1.40;;;;;;;;;;5012730;28;20049;-76
2023/03/24 13:26:29;;;;;;;7.78;1.15;;;;;;;;;;5010775;28;20044;-77
2023/03/24 13:29:21;;;;;;;10.95;1.70;;;;;;;;;;5010678;28;20033;-75
2023/03/24 13:31:56;;;;;;;4.70;0.95;;;;;;;;;;5020369;28;20049;-76
2023/03/24 13:34:28;;;;;;;6.75;1.45;;;;;;;;;;5024214;28;20021;-75
2023/03/24 13:37:17;;;;;;;5.00;1.00;;;;;;;;;;5026073;28;20919;-75
2023/03/24 13:39:47;;;;;;;9.02;1.48;;;;;;;;;;5027312;28;20033;-75
2023/03/24 13:42:29;;;;;;;5.70;1.10;;;;;;;;;;5010567;28;20068;-75
2023/03/24 13:44:55;;;;;;;4.75;1.30;;;;;;;;;;5013757;28;20095;-76
2023/03/24 13:47:21;;;;;;;5.90;1.33;;;;;;;;;;5011456;28;20029;-76
2023/03/24 13:50:01;;;;;;;5.70;1.10;;;;;;;;;;5024794;28;20033;-76
2023/03/24 13:52:38;;;;;;;6.80;1.13;;;;;;;;;;5015280;28;20037;-76
2023/03/24 13:55:26;;;;;;;5.30;1.33;;;;;;;;;;5009394;28;20037;-75
2023/03/24 13:57:57;;;;;;;6.07;1.45;;;;;;;;;;5010030;28;20116;-74
2023/03/24 14:00:25;;;;;;;5.15;1.30;;;;;;;;;;5012347;28;20053;-75
2023/03/24 14:02:52;;;;;;;8.95;1.30;;;;;;;;;;5026011;28;21704;-76
2023/03/24 14:05:21;;;;;;;5.85;1.30;;;;;;;;;;5011047;28;20064;-75
2023/03/24 14:07:51;;;;;;;7.85;1.40;;;;;;;;;;5024240;28;20558;-75
2023/03/24 14:10:19;;;;;;;9.07;1.27;;;;;;;;;;5025806;28;20116;-74
2023/03/24 14:12:54;;;;;;;5.97;1.07;;;;;;;;;;5010338;28;20052;-76
2023/03/24 14:15:21;;;;;;;10.57;1.40;;;;;;;;;;5011493;28;20057;-75
2023/03/24 14:17:48;;;;;;;6.93;1.33;;;;;;;;;;5010493;28;20104;-75
2023/03/24 14:20:27;;;;;;;7.33;1.20;;;;;;;;;;5010111;28;20129;-75
2023/03/24 14:22:53;;;;;;;4.43;1.33;;;;;;;;;;5010642;28;20037;-76
2023/03/24 14:25:24;;;;;;;6.80;1.10;;;;;;;;;;5020387;28;20026;-75
2023/03/24 14:27:54;;;;;;;6.63;0.90;;;;;;;;;;5024325;28;20029;-76
2023/03/24 14:30:27;;;;;;;4.43;1.20;;;;;;;;;;5012249;28;20037;-76
2023/03/24 14:32:53;;;;;;;;;;;;;;;;;;5023205;28;20504;-74
2023/03/24 14:35:23;;;;;;;6.63;1.83;;;;;;;;;;5014156;28;19988;-76
2023/03/24 14:37:51;;;;;;;8.93;1.20;;;;;;;;;;5009763;28;20041;-76
2023/03/24 14:40:28;;;;;;;2.83;0.73;;;;;;;;;;5009642;28;20022;-75
2023/03/24 14:43:03;;;;;;;4.43;0.87;;;;;;;;;;5026287;28;20044;-76
2023/03/24 14:45:32;;;;;;;2.07;0.47;;;;;;;;;;5023989;28;20033;-76
2023/03/24 14:47:59;;;;;;;2.60;0.57;;;;;;;;;;5007283;28;20068;-76
2023/03/24 14:50:25;;;;;;;2.90;0.40;;;;;;;;;;5008351;28;20034;-76
2023/03/24 14:52:58;;;;;;;5.73;0.73;;;;;;;;;;5023861;28;20048;-76
2023/03/24 14:55:25;;;;;;;9.75;0.68;;;;;;;;;;5035917;28;20041;-76